Data for 04/02/2010

Time Sea-Level Adjusted Pressure Absolute Pressure Temperature Relative Humidity Dew Point   
(mb) (inHg) (mb) (inHg) (C) (F) (%) (C) (F)
00:05 1011 29.85 840 24.81 -3.3 26 79 -6.4 20.4
00:10 1011 29.85 840 24.81 -3.4 25.9 78 -6.6 20
00:15 1011 29.85 840 24.81 -3.5 25.7 79 -6.6 20.1
00:20 1011 29.85 840 24.81 -3.6 25.5 79 -6.7 19.9
00:25 1011 29.85 840 24.81 -3.8 25.2 79 -6.9 19.6
00:30 1011 29.85 840 24.81 -4 24.8 79 -7 19.3
00:35 1011 29.85 841 24.83 -4.1 24.6 80 -7.1 19.2
00:40 1011 29.85 841 24.83 -4.3 24.3 80 -7.1 19.1
00:45 1011 29.85 841 24.83 -4.5 24 82 -7.1 19.2
00:50 1011 29.85 841 24.83 -4.6 23.8 83 -7 19.4
00:55 1012 29.88 841 24.83 -4.5 24 82 -7 19.3
01:00 1012 29.88 841 24.83 -4.5 23.9 82 -7.1 19.2
01:05 1012 29.88 841 24.83 -4.6 23.7 83 -7.1 19.1
01:10 1012 29.88 841 24.83 -4.7 23.6 82 -7.3 18.8
01:15 1012 29.88 841 24.83 -5 23 82 -7.6 18.4
01:20 1012 29.88 841 24.83 -4.9 23.3 80 -7.8 18
01:25 1012 29.88 841 24.83 -4.4 24.1 79 -7.6 18.4
01:30 1012 29.88 841 24.83 -4.1 24.6 75 -7.8 17.9
01:35 1012 29.88 841 24.83 -4.3 24.2 77 -7.8 17.9
01:40 1012 29.88 841 24.83 -4.5 23.8 77 -8 17.6
01:45 1012 29.88 841 24.83 -4.7 23.6 77 -8.1 17.4
01:50 1012 29.88 841 24.83 -4.8 23.4 78 -8.1 17.5
01:55 1012 29.88 841 24.83 -4.9 23.2 79 -8 17.5
02:00 1012 29.88 841 24.83 -5 22.9 79 -8.2 17.3
02:05 1012 29.88 841 24.83 -5 23 79 -8 17.5
02:10 1012 29.88 841 24.83 -5.1 22.8 80 -8 17.5
02:15 1012 29.88 841 24.83 -5.2 22.6 79 -8.3 17.1
02:20 1012 29.88 841 24.83 -5.1 22.8 79 -8.3 17.1
02:25 1012 29.88 841 24.83 -5.2 22.6 79 -8.4 17
02:30 1012 29.88 841 24.83 -5.2 22.7 77 -8.5 16.7
02:35 1012 29.88 841 24.83 -4.8 23.3 76 -8.4 16.9
02:40 1012 29.88 841 24.83 -4.5 23.8 75 -8.3 17
02:45 1012 29.88 841 24.83 -4.2 24.4 70 -8.8 16.1
02:50 1012 29.88 841 24.83 -4 24.8 70 -8.7 16.4
02:55 1012 29.88 841 24.83 -3.9 24.9 69 -8.7 16.3
03:00 1012 29.88 841 24.83 -3.7 25.3 69 -8.7 16.4
03:05 1012 29.88 841 24.83 -4 24.7 69 -8.9 16
03:10 1012 29.88 841 24.83 -4.2 24.5 69 -9 15.9
03:15 1012 29.88 841 24.83 -4.3 24.3 70 -8.9 15.9
03:20 1012 29.88 841 24.83 -4.4 24.2 70 -9 15.8
03:25 1012 29.88 841 24.83 -4.5 23.9 72 -8.8 16.1
03:30 1012 29.88 842 24.86 -4.5 23.9 72 -8.8 16.1
03:35 1012 29.88 842 24.86 -4.4 24.1 72 -8.8 16.2
03:40 1012 29.88 842 24.86 -4.4 24.1 72 -8.7 16.3
03:45 1012 29.88 842 24.86 -4.3 24.2 72 -8.7 16.4
03:50 1012 29.88 842 24.86 -4 24.8 71 -8.6 16.5
03:55 1012 29.88 842 24.86 -3.9 25 70 -8.5 16.6
04:00 1013 29.91 842 24.86 -3.9 25 70 -8.5 16.7
04:05 1013 29.91 842 24.86 -4.3 24.3 72 -8.6 16.4
04:10 1013 29.91 842 24.86 -4.4 24.2 69 -9.3 15.3
04:15 1013 29.91 842 24.86 -4.1 24.6 69 -9 15.8
04:20 1013 29.91 842 24.86 -4.3 24.3 69 -9.1 15.5
04:25 1013 29.91 842 24.86 -4.7 23.5 72 -9.1 15.6
04:30 1013 29.91 842 24.86 -5.1 22.8 74 -9.1 15.5
04:35 1013 29.91 842 24.86 -5.4 22.2 74 -9.3 15.3
04:40 1013 29.91 842 24.86 -5.6 21.9 75 -9.3 15.3
04:45 1013 29.91 842 24.86 -5.7 21.8 75 -9.4 15
04:50 1013 29.91 842 24.86 -5.5 22.1 74 -9.4 15.1
04:55 1013 29.91 842 24.86 -5.8 21.7 76 -9.4 15.1
05:00 1013 29.91 842 24.86 -5.7 21.8 76 -9.3 15.2
05:05 1013 29.91 842 24.86 -5.8 21.6 76 -9.4 15
05:10 1013 29.91 842 24.86 -5.6 22 74 -9.4 15
05:15 1013 29.91 842 24.86 -5.6 22 75 -9.4 15.1
05:20 1013 29.91 842 24.86 -5.7 21.8 75 -9.3 15.2
05:25 1013 29.91 842 24.86 -5.7 21.7 76 -9.4 15.2
05:30 1013 29.91 842 24.86 -5.7 21.7 76 -9.4 15.1
05:35 1013 29.91 842 24.86 -5.8 21.5 77 -9.2 15.4
05:40 1013 29.91 842 24.86 -5.8 21.5 78 -9.1 15.6
05:45 1013 29.91 842 24.86 -5.9 21.5 77 -9.2 15.5
05:50 1013 29.91 842 24.86 -5.9 21.4 78 -9.1 15.5
05:55 1013 29.91 842 24.86 -5.9 21.4 78 -9.1 15.6
06:00 1013 29.91 842 24.86 -6.1 21.1 79 -9.1 15.7
06:05 1013 29.91 842 24.86 -6.1 20.9 80 -9.1 15.6
06:10 1013 29.91 842 24.86 -6.3 20.7 80 -9.1 15.6
06:15 1013 29.91 842 24.86 -6.2 20.8 80 -9.2 15.4
06:20 1013 29.91 842 24.86 -6.2 20.8 80 -9.1 15.7
06:25 1013 29.91 842 24.86 -6.2 20.9 78 -9.3 15.2
06:30 1013 29.91 842 24.86 -6 21.2 76 -9.5 14.8
06:35 1013 29.91 842 24.86 -6.1 21 76 -9.6 14.7
06:40 1013 29.91 842 24.86 -6 21.1 75 -9.7 14.5
06:45 1013 29.91 842 24.86 -6 21.2 76 -9.6 14.7
06:50 1013 29.91 842 24.86 -6.1 21 76 -9.6 14.7
06:55 1013 29.91 842 24.86 -6.4 20.6 77 -9.8 14.3
07:00 1013 29.91 842 24.86 -6.5 20.4 77 -9.8 14.4
07:05 1013 29.91 842 24.86 -6.6 20.2 77 -9.9 14.2
07:10 1013 29.91 842 24.86 -6.7 20 78 -9.9 14.2
07:15 1013 29.91 842 24.86 -6.8 19.8 79 -9.9 14.3
07:20 1013 29.91 842 24.86 -6.9 19.7 78 -10 14
07:25 1013 29.91 842 24.86 -6.6 20.1 77 -10 14.1
07:30 1013 29.91 842 24.86 -6.4 20.5 75 -10.1 13.9
07:35 1013 29.91 842 24.86 -6.2 20.9 75 -10 14.1
07:40 1013 29.91 842 24.86 -6.2 20.9 75 -9.9 14.1
07:45 1013 29.91 842 24.86 -6.2 20.9 74 -10.2 13.7
07:50 1013 29.91 842 24.86 -5.9 21.3 72 -10.2 13.7
07:55 1013 29.91 842 24.86 -5.7 21.7 72 -9.9 14.1
08:00 1013 29.91 842 24.86 -5.4 22.2 72 -9.7 14.5
08:05 1013 29.91 842 24.86 -5.2 22.6 72 -9.6 14.8
08:10 1013 29.91 842 24.86 -4.9 23.2 71 -9.4 15
08:15 1013 29.91 842 24.86 -4.3 24.3 68 -9.3 15.3
08:20 1013 29.91 842 24.86 -4 24.9 68 -9 15.7
08:25 1013 29.91 842 24.86 -4.1 24.5 68 -9.2 15.5
08:30 1013 29.91 842 24.86 -3.9 24.9 66 -9.3 15.2
08:35 1013 29.91 842 24.86 -3.6 25.6 66 -9 15.9
08:40 1013 29.91 842 24.86 -3 26.6 63 -9 15.7
08:45 1013 29.91 842 24.86 -2.3 27.8 59 -9.2 15.5
08:50 1013 29.91 842 24.86 -1.8 28.8 59 -8.7 16.4
08:55 1013 29.91 842 24.86 -1.4 29.5 59 -8.4 16.8
09:00 1013 29.91 842 24.86 -1.7 29 60 -8.5 16.7
09:05 1013 29.91 842 24.86 -2 28.4 59 -8.9 16
09:10 1012 29.88 842 24.86 -1.7 28.9 59 -8.8 16.2
09:15 1012 29.88 842 24.86 -1.7 28.9 60 -8.5 16.7
09:20 1012 29.88 842 24.86 -1 30.2 57 -8.4 16.9
09:25 1012 29.88 842 24.86 -0.4 31.2 54 -8.5 16.7
09:30 1012 29.88 842 24.86 -0.4 31.3 56 -8.2 17.2
09:35 1012 29.88 842 24.86 -0.6 30.9 58 -7.9 17.8
09:40 1012 29.88 842 24.86 -0.4 31.3 56 -8.2 17.2
09:45 1012 29.88 841 24.83 -0.2 31.7 56 -8 17.6
09:50 1012 29.88 841 24.83 0.1 32.1 56 -7.8 18
09:55 1012 29.88 841 24.83 -0.1 31.8 58 -7.4 18.7
10:00 1012 29.88 841 24.83 0.2 32.4 55 -7.9 17.8
10:05 1012 29.88 841 24.83 0.6 33.1 54 -7.8 18
10:10 1012 29.88 841 24.83 0.6 33.1 53 -7.9 17.9
10:15 1012 29.88 841 24.83 0.6 33.1 49 -9 15.8
10:20 1012 29.88 841 24.83 0.9 33.7 54 -7.3 18.9
10:25 1012 29.88 841 24.83 0.9 33.5 54 -7.5 18.5
10:30 1012 29.88 841 24.83 0.8 33.5 50 -8.5 16.7
10:35 1012 29.88 841 24.83 1.2 34.2 49 -8.2 17.2
10:40 1012 29.88 841 24.83 1.3 34.3 46 -9.2 15.5
10:45 1012 29.88 841 24.83 1.2 34.2 47 -8.9 16
10:50 1012 29.88 841 24.83 1.8 35.3 45 -9 15.8
10:55 1011 29.85 841 24.83 1.7 35.1 47 -8.5 16.8
11:00 1011 29.85 841 24.83 1.4 34.6 47 -8.7 16.3
11:05 1011 29.85 840 24.81 1.7 35.1 46 -8.6 16.6
11:10 1011 29.85 840 24.81 2 35.6 43 -9.5 15
11:15 1011 29.85 840 24.81 2.2 35.9 42 -9.5 14.8
11:20 1011 29.85 840 24.81 2.3 36.1 41 -9.5 14.9
11:25 1011 29.85 840 24.81 2.3 36.1 43 -9 15.8
11:30 1011 29.85 840 24.81 2.6 36.6 46 -8 17.6
11:35 1011 29.85 840 24.81 3.3 38 40 -9.2 15.5
11:40 1011 29.85 840 24.81 3 37.5 41 -9 15.8
11:45 1011 29.85 840 24.81 2.6 36.7 44 -8.5 16.7
11:50 1010 29.83 840 24.81 3.7 38.6 39 -8.9 16
11:55 1010 29.83 840 24.81 2.8 37.1 41 -9.2 15.4
12:00 1010 29.83 839 24.78 3 37.5 43 -8.4 17
12:05 1010 29.83 839 24.78 3.3 38 44 -7.8 17.9
12:10 1010 29.83 839 24.78 2.9 37.2 44 -8.3 17
12:15 1010 29.83 839 24.78 3.5 38.4 40 -8.8 16.1
12:20 1010 29.83 839 24.78 3.8 38.8 41 -8.3 17
12:25 1010 29.83 839 24.78 3.8 38.8 41 -8.3 17.1
12:30 1009 29.8 839 24.78 3.1 37.6 46 -7.5 18.4
12:35 1009 29.8 838 24.75 3.7 38.6 42 -8.2 17.3
12:40 1009 29.8 838 24.75 4.4 39.9 37 -9 15.7
12:45 1009 29.8 838 24.75 5.3 41.5 37 -8.3 17.1
12:50 1009 29.8 838 24.75 5.5 41.8 33 -9.5 14.9
12:55 1009 29.8 838 24.75 5.7 42.2 33 -9.2 15.4
13:00 1009 29.8 838 24.75 5.8 42.5 32 -9.8 14.4
13:05 1009 29.8 838 24.75 4.9 40.7 35 -9.2 15.4
13:10 1009 29.8 838 24.75 5.4 41.7 32 -9.9 14.1
13:15 1008 29.77 838 24.75 5.4 41.8 31 -10.3 13.5
13:20 1008 29.77 837 24.72 5.7 42.2 34 -9.2 15.5
13:25 1008 29.77 837 24.72 5.9 42.6 33 -9.4 15.1
13:30 1008 29.77 837 24.72 6.2 43.2 32 -9.2 15.4
13:35 1008 29.77 837 24.72 6.9 44.4 27 -10.7 12.8
13:40 1008 29.77 837 24.72 6.2 43.2 29 -10.5 13.1
13:45 1008 29.77 837 24.72 6.3 43.3 29 -10.7 12.8
13:50 1007 29.74 837 24.72 6.4 43.4 29 -10.5 13.2
13:55 1007 29.74 837 24.72 6.8 44.3 29 -10.1 13.9
14:00 1007 29.74 836 24.69 6.6 43.8 29 -10.2 13.6
14:05 1007 29.74 836 24.69 6.7 44.1 28 -10.5 13.1
14:10 1007 29.74 836 24.69 6.2 43.1 30 -10 14
14:15 1007 29.74 836 24.69 5.8 42.5 29 -10.7 12.7
14:20 1007 29.74 836 24.69 6.7 44 29 -10 14
14:25 1007 29.74 836 24.69 6.8 44.2 29 -10 14.1
14:30 1007 29.74 836 24.69 6.9 44.5 27 -10.9 12.4
14:35 1007 29.74 836 24.69 6.2 43.2 26 -12.1 10.3
14:40 1006 29.71 836 24.69 6.1 43 28 -11.3 11.6
14:45 1006 29.71 836 24.69 6.8 44.2 26 -11.6 11.2
14:50 1006 29.71 835 24.66 6.7 44 27 -11 12.2
14:55 1006 29.71 835 24.66 5.5 42 27 -12 10.4
15:00 1006 29.71 835 24.66 6.4 43.5 26 -11.5 11.2
15:05 1006 29.71 835 24.66 6.3 43.4 27 -11.4 11.4
15:10 1006 29.71 835 24.66 5.1 41.3 29 -11.6 11.2
15:15 1006 29.71 835 24.66 6 42.8 26 -12.2 10
15:20 1006 29.71 835 24.66 5.5 41.8 27 -12 10.4
15:25 1006 29.71 835 24.66 5.5 42 28 -11.4 11.5
15:30 1006 29.71 835 24.66 5.7 42.2 26 -12.6 9.3
15:35 1006 29.71 835 24.66 5.8 42.5 27 -11.8 10.8
15:40 1005 29.68 835 24.66 5.8 42.5 26 -12.1 10.3
15:45 1005 29.68 835 24.66 6.6 43.8 26 -11.7 11
15:50 1005 29.68 834 24.63 6.2 43.2 26 -11.7 10.9
15:55 1005 29.68 834 24.63 6.5 43.8 26 -11.6 11.2
16:00 1005 29.68 834 24.63 6.2 43.1 29 -10.7 12.8
16:05 1005 29.68 834 24.63 6.1 42.9 29 -10.8 12.5
16:10 1005 29.68 834 24.63 6.7 44 28 -10.6 12.9
16:15 1005 29.68 834 24.63 6.1 43 29 -10.7 12.8
16:20 1005 29.68 834 24.63 5.6 42 29 -11.1 12
16:25 1005 29.68 834 24.63 5.3 41.5 30 -10.9 12.4
16:30 1005 29.68 834 24.63 4.8 40.7 29 -11.9 10.5
16:35 1005 29.68 834 24.63 5.2 41.3 28 -12.1 10.2
16:40 1005 29.68 834 24.63 5.1 41.3 29 -11.6 11.1
16:45 1005 29.68 834 24.63 5.2 41.4 28 -12 10.4
16:50 1005 29.68 834 24.63 4.9 40.9 27 -12.5 9.6
16:55 1005 29.68 834 24.63 4.9 40.9 32 -10.4 13.2
17:00 1005 29.68 834 24.63 5 41.1 31 -10.8 12.5
17:05 1005 29.68 834 24.63 5 40.9 30 -11.4 11.5
17:10 1005 29.68 834 24.63 4.8 40.7 30 -11.4 11.5
17:15 1005 29.68 834 24.63 4.9 40.8 32 -10.3 13.5
17:20 1005 29.68 834 24.63 5 40.9 31 -11 12.2
17:25 1004 29.65 834 24.63 4.9 40.8 33 -10.3 13.5
17:30 1004 29.65 834 24.63 4.5 40.2 33 -10.6 13
17:35 1004 29.65 834 24.63 4.4 40 34 -9.9 14.1
17:40 1004 29.65 834 24.63 4.2 39.6 35 -10 14.1
17:45 1004 29.65 834 24.63 4.2 39.5 34 -10.4 13.2
17:50 1004 29.65 834 24.63 4.1 39.5 33 -10.6 12.8
17:55 1004 29.65 834 24.63 4.2 39.5 35 -9.9 14.2
18:00 1004 29.65 833 24.6 4.1 39.3 39 -8.7 16.3
18:05 1004 29.65 833 24.6 4 39.2 36 -9.9 14.2
18:10 1004 29.65 833 24.6 4 39.3 33 -10.8 12.6
18:15 1004 29.65 833 24.6 4.2 39.5 36 -9.8 14.4
18:20 1004 29.65 833 24.6 4.1 39.3 36 -9.6 14.8
18:25 1004 29.65 833 24.6 3.9 39 34 -10.8 12.6
18:30 1004 29.65 833 24.6 3.8 38.8 34 -10.9 12.4
18:35 1004 29.65 833 24.6 3.8 38.9 34 -10.7 12.8
18:40 1004 29.65 833 24.6 3.8 38.8 34 -10.7 12.8
18:45 1004 29.65 833 24.6 3.7 38.7 36 -9.9 14.2
18:50 1004 29.65 833 24.6 3.7 38.7 34 -10.6 13
18:55 1004 29.65 833 24.6 3.8 38.9 34 -10.7 12.7
19:00 1004 29.65 833 24.6 3.9 39.1 32 -11.4 11.5
19:05 1004 29.65 833 24.6 3.9 39 34 -10.7 12.8
19:10 1004 29.65 833 24.6 3.8 38.8 37 -9.7 14.5
19:15 1004 29.65 833 24.6 3.6 38.5 38 -9.4 15.1
19:20 1004 29.65 833 24.6 3.4 38.2 37 -10 14
19:25 1004 29.65 833 24.6 3.5 38.2 35 -10.5 13.2
19:30 1004 29.65 833 24.6 3.5 38.3 37 -9.7 14.5
19:35 1004 29.65 833 24.6 3.3 37.9 40 -9 15.9
19:40 1004 29.65 833 24.6 3 37.5 43 -8.4 16.9
19:45 1004 29.65 833 24.6 2.9 37.3 42 -8.7 16.3
19:50 1004 29.65 833 24.6 2.8 37.1 45 -8.1 17.5
19:55 1003 29.62 833 24.6 2.9 37.1 43 -8.6 16.5
20:00 1003 29.62 833 24.6 2.9 37.3 43 -8.6 16.6
20:05 1003 29.62 833 24.6 2.9 37.2 44 -8.1 17.5
20:10 1003 29.62 833 24.6 2.7 36.9 45 -8.2 17.3
20:15 1003 29.62 833 24.6 2.8 37 42 -8.9 15.9
20:20 1003 29.62 833 24.6 3 37.4 41 -8.8 16.1
20:25 1003 29.62 832 24.57 3 37.5 42 -8.8 16.2
20:30 1003 29.62 832 24.57 3 37.5 43 -8.5 16.7
20:35 1003 29.62 832 24.57 2.9 37.2 44 -8.1 17.5
20:40 1003 29.62 832 24.57 2.8 37 49 -7 19.4
20:45 1003 29.62 832 24.57 2.6 36.7 49 -7.1 19.3
20:50 1003 29.62 832 24.57 2.7 36.9 45 -8.1 17.4
20:55 1003 29.62 832 24.57 2.9 37.2 45 -7.8 17.9
21:00 1003 29.62 832 24.57 2.8 37 46 -7.8 18
21:05 1003 29.62 832 24.57 2.8 37.1 46 -7.8 18
21:10 1003 29.62 832 24.57 2.9 37.1 46 -7.7 18.2
21:15 1003 29.62 832 24.57 2.8 37.1 46 -7.6 18.3
21:20 1003 29.62 832 24.57 2.7 36.9 47 -7.5 18.5
21:25 1003 29.62 832 24.57 2.7 36.8 47 -7.6 18.4
21:30 1003 29.62 832 24.57 2.7 36.8 47 -7.5 18.4
21:35 1003 29.62 832 24.57 2.6 36.7 49 -7.2 19.1
21:40 1003 29.62 832 24.57 2.5 36.5 49 -7.1 19.2
21:45 1003 29.62 832 24.57 2.5 36.4 49 -7.3 18.9
21:50 1003 29.62 832 24.57 2.4 36.4 49 -7.2 19
21:55 1003 29.62 832 24.57 2.5 36.4 49 -7.2 19
22:00 1003 29.62 832 24.57 2.4 36.4 50 -7 19.5
22:05 1003 29.62 832 24.57 2.3 36.2 50 -7 19.4
22:10 1003 29.62 832 24.57 2.3 36.2 49 -7.3 18.9
22:15 1003 29.62 832 24.57 2.4 36.3 52 -6.6 20.2
22:20 1003 29.62 832 24.57 2.3 36.2 51 -6.8 19.7
22:25 1003 29.62 832 24.57 2.5 36.4 51 -6.8 19.8
22:30 1003 29.62 832 24.57 2.5 36.6 49 -7 19.4
22:35 1003 29.62 832 24.57 2.7 36.8 49 -7.1 19.1
22:40 1003 29.62 832 24.57 2.7 36.9 48 -7.1 19.2
22:45 1003 29.62 832 24.57 2.7 36.8 49 -7.1 19.2
22:50 1003 29.62 832 24.57 2.7 36.8 49 -6.9 19.6
22:55 1003 29.62 832 24.57 2.7 36.8 52 -6.2 20.8
23:00 1003 29.62 832 24.57 2.6 36.6 52 -6.3 20.7
23:05 1003 29.62 832 24.57 2.5 36.6 52 -6.4 20.4
23:10 1003 29.62 832 24.57 2.5 36.6 51 -6.5 20.2
23:15 1003 29.62 832 24.57 2.5 36.6 51 -6.6 20.2
23:20 1003 29.62 832 24.57 2.7 36.8 49 -6.9 19.5
23:25 1003 29.62 832 24.57 2.6 36.6 50 -6.8 19.8
23:30 1003 29.62 832 24.57 2.5 36.4 50 -7 19.5
23:35 1003 29.62 832 24.57 2.3 36.1 52 -6.6 20.2
23:40 1003 29.62 832 24.57 2.3 36.2 52 -6.6 20.1
23:45 1003 29.62 832 24.57 2.5 36.5 51 -6.6 20.1
23:50 1003 29.62 832 24.57 2.5 36.5 51 -6.7 19.9
23:55 1003 29.62 832 24.57 2.2 35.9 51 -6.9 19.7
24:00 1003 29.62 832 24.57 2.2 35.9 52 -6.7 20